sensor_id;sensor_type;location;lat;lon;timestamp;pressure;altitude;pressure_sealevel;temperature;humidity
34696;BME280;20918;51.138;17.370;2022-11-23T00:02:45;99151.73;;;0.64;88.26
34696;BME280;20918;51.138;17.370;2022-11-23T00:05:46;99142.28;;;0.58;88.30
34696;BME280;20918;51.138;17.370;2022-11-23T00:08:47;99138.25;;;0.59;88.37
34696;BME280;20918;51.138;17.370;2022-11-23T00:11:49;99142.53;;;0.55;88.21
34696;BME280;20918;51.138;17.370;2022-11-23T00:14:50;99133.28;;;0.51;88.25
34696;BME280;20918;51.138;17.370;2022-11-23T00:17:51;99138.67;;;0.43;88.16
34696;BME280;20918;51.138;17.370;2022-11-23T00:20:52;99138.39;;;0.31;88.12
34696;BME280;20918;51.138;17.370;2022-11-23T00:23:53;99145.13;;;0.28;88.34
34696;BME280;20918;51.138;17.370;2022-11-23T00:26:54;99138.41;;;0.26;88.47
34696;BME280;20918;51.138;17.370;2022-11-23T00:29:55;99139.83;;;0.24;88.60
34696;BME280;20918;51.138;17.370;2022-11-23T00:32:56;99138.52;;;0.24;88.63
34696;BME280;20918;51.138;17.370;2022-11-23T00:36:01;99150.27;;;0.24;88.63
34696;BME280;20918;51.138;17.370;2022-11-23T00:39:06;99145.05;;;0.24;88.61
34696;BME280;20918;51.138;17.370;2022-11-23T00:42:08;99144.79;;;0.27;88.66
34696;BME280;20918;51.138;17.370;2022-11-23T00:45:10;99151.31;;;0.27;88.54
34696;BME280;20918;51.138;17.370;2022-11-23T00:48:10;99153.79;;;0.34;88.68
34696;BME280;20918;51.138;17.370;2022-11-23T00:51:14;99152.31;;;0.41;88.64
34696;BME280;20918;51.138;17.370;2022-11-23T00:54:24;99151.98;;;0.40;88.41
34696;BME280;20918;51.138;17.370;2022-11-23T00:57:25;99143.92;;;0.38;88.35
34696;BME280;20918;51.138;17.370;2022-11-23T01:00:26;99140.34;;;0.39;88.49
34696;BME280;20918;51.138;17.370;2022-11-23T01:03:28;99146.28;;;0.41;88.43
34696;BME280;20918;51.138;17.370;2022-11-23T01:06:34;99147.27;;;0.34;88.18
34696;BME280;20918;51.138;17.370;2022-11-23T01:09:37;99151.06;;;0.30;88.15
34696;BME280;20918;51.138;17.370;2022-11-23T01:12:40;99152.98;;;0.22;87.97
34696;BME280;20918;51.138;17.370;2022-11-23T01:15:49;99149.34;;;0.14;88.02
34696;BME280;20918;51.138;17.370;2022-11-23T01:18:54;99141.91;;;0.09;88.12
34696;BME280;20918;51.138;17.370;2022-11-23T01:21:56;99144.14;;;0.08;88.26
34696;BME280;20918;51.138;17.370;2022-11-23T01:24:58;99144.12;;;0.14;88.48
34696;BME280;20918;51.138;17.370;2022-11-23T01:27:59;99141.41;;;0.15;88.54
34696;BME280;20918;51.138;17.370;2022-11-23T01:34:18;99151.63;;;0.34;88.74
34696;BME280;20918;51.138;17.370;2022-11-23T01:37:19;99146.53;;;0.38;88.54
34696;BME280;20918;51.138;17.370;2022-11-23T01:40:20;99143.56;;;0.42;88.48
34696;BME280;20918;51.138;17.370;2022-11-23T01:43:22;99146.25;;;0.47;88.37
34696;BME280;20918;51.138;17.370;2022-11-23T01:46:23;99147.45;;;0.48;88.23
34696;BME280;20918;51.138;17.370;2022-11-23T01:49:27;99158.25;;;0.43;88.01
34696;BME280;20918;51.138;17.370;2022-11-23T01:52:31;99151.39;;;0.42;87.98
34696;BME280;20918;51.138;17.370;2022-11-23T01:55:33;99156.48;;;0.38;87.96
34696;BME280;20918;51.138;17.370;2022-11-23T01:58:37;99155.55;;;0.34;87.92
34696;BME280;20918;51.138;17.370;2022-11-23T02:01:39;99161.18;;;0.24;87.84
34696;BME280;20918;51.138;17.370;2022-11-23T02:04:43;99175.09;;;0.13;87.81
34696;BME280;20918;51.138;17.370;2022-11-23T02:07:48;99174.28;;;0.07;88.11
34696;BME280;20918;51.138;17.370;2022-11-23T02:10:51;99176.89;;;0.07;88.28
34696;BME280;20918;51.138;17.370;2022-11-23T02:13:54;99170.12;;;0.10;88.57
34696;BME280;20918;51.138;17.370;2022-11-23T02:16:57;99178.03;;;0.14;88.61
34696;BME280;20918;51.138;17.370;2022-11-23T02:20:08;99171.89;;;0.15;88.62
34696;BME280;20918;51.138;17.370;2022-11-23T02:26:50;99169.64;;;0.10;88.58
34696;BME280;20918;51.138;17.370;2022-11-23T02:29:53;99166.69;;;0.09;88.66
34696;BME280;20918;51.138;17.370;2022-11-23T02:32:55;99172.16;;;0.06;88.71
34696;BME280;20918;51.138;17.370;2022-11-23T02:36:00;99163.59;;;0.10;88.96
34696;BME280;20918;51.138;17.370;2022-11-23T02:39:11;99173.19;;;0.15;89.03
34696;BME280;20918;51.138;17.370;2022-11-23T02:42:19;99172.57;;;0.17;89.01
34696;BME280;20918;51.138;17.370;2022-11-23T02:45:27;99171.14;;;0.24;89.18
34696;BME280;20918;51.138;17.370;2022-11-23T02:48:31;99166.22;;;0.36;89.34
34696;BME280;20918;51.138;17.370;2022-11-23T02:51:32;99157.89;;;0.48;89.38
34696;BME280;20918;51.138;17.370;2022-11-23T02:54:35;99161.86;;;0.58;89.17
34696;BME280;20918;51.138;17.370;2022-11-23T02:57:36;99161.52;;;0.57;88.91
34696;BME280;20918;51.138;17.370;2022-11-23T03:00:37;99159.45;;;0.66;89.10
34696;BME280;20918;51.138;17.370;2022-11-23T03:03:38;99166.42;;;0.71;88.94
34696;BME280;20918;51.138;17.370;2022-11-23T03:06:40;99164.86;;;0.74;88.89
34696;BME280;20918;51.138;17.370;2022-11-23T03:09:41;99163.64;;;0.78;88.84
34696;BME280;20918;51.138;17.370;2022-11-23T03:12:43;99153.16;;;0.84;88.84
34696;BME280;20918;51.138;17.370;2022-11-23T03:15:46;99162.27;;;0.89;88.66
34696;BME280;20918;51.138;17.370;2022-11-23T03:18:47;99159.46;;;0.81;88.35
34696;BME280;20918;51.138;17.370;2022-11-23T03:21:49;99164.83;;;0.80;88.39
34696;BME280;20918;51.138;17.370;2022-11-23T03:24:50;99161.28;;;0.75;88.32
34696;BME280;20918;51.138;17.370;2022-11-23T03:27:51;99168.10;;;0.66;88.29
34696;BME280;20918;51.138;17.370;2022-11-23T03:30:52;99168.59;;;0.66;88.56
34696;BME280;20918;51.138;17.370;2022-11-23T03:33:55;99166.31;;;0.67;88.65
34696;BME280;20918;51.138;17.370;2022-11-23T03:36:57;99156.72;;;0.62;88.58
34696;BME280;20918;51.138;17.370;2022-11-23T03:39:58;99152.12;;;0.60;88.70
34696;BME280;20918;51.138;17.370;2022-11-23T03:43:18;99168.30;;;0.54;88.65
34696;BME280;20918;51.138;17.370;2022-11-23T03:46:20;99161.41;;;0.53;88.80
34696;BME280;20918;51.138;17.370;2022-11-23T03:49:22;99160.33;;;0.55;88.94
34696;BME280;20918;51.138;17.370;2022-11-23T03:52:23;99158.20;;;0.55;88.86
34696;BME280;20918;51.138;17.370;2022-11-23T03:55:25;99158.28;;;0.59;89.07
34696;BME280;20918;51.138;17.370;2022-11-23T03:58:26;99160.49;;;0.69;89.19
34696;BME280;20918;51.138;17.370;2022-11-23T04:01:27;99158.59;;;0.71;89.00
34696;BME280;20918;51.138;17.370;2022-11-23T04:04:30;99160.77;;;0.81;89.05
34696;BME280;20918;51.138;17.370;2022-11-23T04:07:46;99159.31;;;0.88;89.03
34696;BME280;20918;51.138;17.370;2022-11-23T04:10:49;99153.61;;;0.89;88.82
34696;BME280;20918;51.138;17.370;2022-11-23T04:13:52;99166.45;;;0.86;88.63
34696;BME280;20918;51.138;17.370;2022-11-23T04:16:53;99164.58;;;0.83;88.53
34696;BME280;20918;51.138;17.370;2022-11-23T04:19:56;99160.06;;;0.85;88.64
34696;BME280;20918;51.138;17.370;2022-11-23T04:22:58;99151.26;;;0.86;88.63
34696;BME280;20918;51.138;17.370;2022-11-23T04:26:00;99147.04;;;0.95;88.88
34696;BME280;20918;51.138;17.370;2022-11-23T04:29:02;99146.89;;;1.02;88.84
34696;BME280;20918;51.138;17.370;2022-11-23T04:32:04;99147.34;;;1.01;88.58
34696;BME280;20918;51.138;17.370;2022-11-23T04:35:06;99152.05;;;0.92;88.33
34696;BME280;20918;51.138;17.370;2022-11-23T04:38:08;99153.05;;;0.85;88.46
34696;BME280;20918;51.138;17.370;2022-11-23T04:41:10;99144.12;;;0.88;88.65
34696;BME280;20918;51.138;17.370;2022-11-23T04:44:12;99142.83;;;0.88;88.60
34696;BME280;20918;51.138;17.370;2022-11-23T04:47:14;99141.33;;;0.80;88.39
34696;BME280;20918;51.138;17.370;2022-11-23T04:50:17;99146.92;;;0.75;88.53
34696;BME280;20918;51.138;17.370;2022-11-23T04:53:20;99147.07;;;0.74;88.71
34696;BME280;20918;51.138;17.370;2022-11-23T04:56:21;99146.02;;;0.71;88.75
34696;BME280;20918;51.138;17.370;2022-11-23T04:59:22;99150.05;;;0.69;88.98
34696;BME280;20918;51.138;17.370;2022-11-23T05:02:25;99151.44;;;0.73;89.12
34696;BME280;20918;51.138;17.370;2022-11-23T05:05:30;99152.29;;;0.74;89.12
34696;BME280;20918;51.138;17.370;2022-11-23T05:08:32;99153.11;;;0.74;89.18
34696;BME280;20918;51.138;17.370;2022-11-23T05:11:38;99158.67;;;0.75;89.21
34696;BME280;20918;51.138;17.370;2022-11-23T05:14:41;99162.59;;;0.75;89.22
34696;BME280;20918;51.138;17.370;2022-11-23T05:17:43;99165.34;;;0.74;89.17
34696;BME280;20918;51.138;17.370;2022-11-23T05:20:46;99166.05;;;0.70;89.11
34696;BME280;20918;51.138;17.370;2022-11-23T05:23:48;99160.64;;;0.62;88.97
34696;BME280;20918;51.138;17.370;2022-11-23T05:26:49;99160.92;;;0.53;89.05
34696;BME280;20918;51.138;17.370;2022-11-23T05:29:50;99174.12;;;0.52;89.22
34696;BME280;20918;51.138;17.370;2022-11-23T05:32:51;99174.69;;;0.55;89.38
34696;BME280;20918;51.138;17.370;2022-11-23T05:35:54;99169.77;;;0.62;89.55
34696;BME280;20918;51.138;17.370;2022-11-23T05:38:57;99172.16;;;0.65;89.35
34696;BME280;20918;51.138;17.370;2022-11-23T05:42:00;99173.47;;;0.65;89.39
34696;BME280;20918;51.138;17.370;2022-11-23T05:45:05;99167.31;;;0.60;89.24
34696;BME280;20918;51.138;17.370;2022-11-23T05:48:09;99163.91;;;0.54;89.23
34696;BME280;20918;51.138;17.370;2022-11-23T05:51:24;99157.52;;;0.47;89.23
34696;BME280;20918;51.138;17.370;2022-11-23T05:54:25;99164.44;;;0.42;89.40
34696;BME280;20918;51.138;17.370;2022-11-23T05:57:31;99165.28;;;0.37;89.45
34696;BME280;20918;51.138;17.370;2022-11-23T06:00:36;99169.33;;;0.30;89.53
34696;BME280;20918;51.138;17.370;2022-11-23T06:03:37;99171.12;;;0.30;89.73
34696;BME280;20918;51.138;17.370;2022-11-23T06:06:38;99168.27;;;0.27;89.85
34696;BME280;20918;51.138;17.370;2022-11-23T06:09:39;99175.05;;;0.24;89.90
34696;BME280;20918;51.138;17.370;2022-11-23T06:12:42;99174.56;;;0.25;90.02
34696;BME280;20918;51.138;17.370;2022-11-23T06:15:46;99180.27;;;0.24;90.06
34696;BME280;20918;51.138;17.370;2022-11-23T06:18:49;99190.36;;;0.23;90.06
34696;BME280;20918;51.138;17.370;2022-11-23T06:21:50;99188.34;;;0.21;90.03
34696;BME280;20918;51.138;17.370;2022-11-23T06:24:52;99200.42;;;0.22;90.14
34696;BME280;20918;51.138;17.370;2022-11-23T06:28:03;99198.19;;;0.23;90.17
34696;BME280;20918;51.138;17.370;2022-11-23T06:31:06;99205.88;;;0.25;90.26
34696;BME280;20918;51.138;17.370;2022-11-23T06:34:11;99214.17;;;0.30;90.25
34696;BME280;20918;51.138;17.370;2022-11-23T06:37:14;99213.56;;;0.37;90.35
34696;BME280;20918;51.138;17.370;2022-11-23T06:40:17;99220.53;;;0.48;90.43
34696;BME280;20918;51.138;17.370;2022-11-23T06:43:18;99221.22;;;0.50;90.18
34696;BME280;20918;51.138;17.370;2022-11-23T06:46:20;99227.97;;;0.53;90.14
34696;BME280;20918;51.138;17.370;2022-11-23T06:49:21;99233.91;;;0.55;90.06
34696;BME280;20918;51.138;17.370;2022-11-23T06:52:23;99228.20;;;0.55;89.98
34696;BME280;20918;51.138;17.370;2022-11-23T06:55:26;99232.34;;;0.58;90.00
34696;BME280;20918;51.138;17.370;2022-11-23T06:58:27;99235.80;;;0.53;89.90
34696;BME280;20918;51.138;17.370;2022-11-23T07:01:28;99245.48;;;0.62;90.10
34696;BME280;20918;51.138;17.370;2022-11-23T07:04:34;99249.36;;;0.73;90.28
34696;BME280;20918;51.138;17.370;2022-11-23T07:07:37;99248.77;;;0.75;90.05
34696;BME280;20918;51.138;17.370;2022-11-23T07:10:40;99253.17;;;0.75;89.83
34696;BME280;20918;51.138;17.370;2022-11-23T07:13:43;99247.46;;;0.75;89.85
34696;BME280;20918;51.138;17.370;2022-11-23T07:16:44;99250.92;;;0.70;89.68
34696;BME280;20918;51.138;17.370;2022-11-23T07:19:45;99245.95;;;0.67;89.73
34696;BME280;20918;51.138;17.370;2022-11-23T07:22:47;99242.52;;;0.66;89.77
34696;BME280;20918;51.138;17.370;2022-11-23T07:25:48;99246.20;;;0.64;89.77
34696;BME280;20918;51.138;17.370;2022-11-23T07:28:50;99241.95;;;0.84;91.27
34696;BME280;20918;51.138;17.370;2022-11-23T07:31:51;99236.63;;;0.85;90.26
34696;BME280;20918;51.138;17.370;2022-11-23T07:34:53;99240.82;;;0.77;89.83
34696;BME280;20918;51.138;17.370;2022-11-23T07:37:55;99247.13;;;0.74;89.88
34696;BME280;20918;51.138;17.370;2022-11-23T07:40:56;99258.75;;;0.70;89.88
34696;BME280;20918;51.138;17.370;2022-11-23T07:44:00;99265.53;;;0.67;89.95
34696;BME280;20918;51.138;17.370;2022-11-23T07:47:01;99262.23;;;0.65;90.00
34696;BME280;20918;51.138;17.370;2022-11-23T07:50:04;99274.81;;;0.65;90.11
34696;BME280;20918;51.138;17.370;2022-11-23T07:53:06;99277.53;;;0.64;90.23
34696;BME280;20918;51.138;17.370;2022-11-23T07:56:09;99280.14;;;0.64;90.30
34696;BME280;20918;51.138;17.370;2022-11-23T07:59:10;99280.62;;;0.63;90.33
34696;BME280;20918;51.138;17.370;2022-11-23T08:02:13;99283.58;;;0.64;90.45
34696;BME280;20918;51.138;17.370;2022-11-23T08:05:15;99287.73;;;0.67;90.50
34696;BME280;20918;51.138;17.370;2022-11-23T08:08:16;99291.53;;;0.69;90.59
34696;BME280;20918;51.138;17.370;2022-11-23T08:11:17;99289.16;;;0.71;90.63
34696;BME280;20918;51.138;17.370;2022-11-23T08:14:20;99293.07;;;0.71;90.53
34696;BME280;20918;51.138;17.370;2022-11-23T08:17:21;99293.75;;;0.73;90.69
34696;BME280;20918;51.138;17.370;2022-11-23T08:20:22;99296.36;;;0.73;90.67
34696;BME280;20918;51.138;17.370;2022-11-23T08:23:24;99295.31;;;0.70;90.59
34696;BME280;20918;51.138;17.370;2022-11-23T08:26:25;99285.00;;;0.69;90.69
34696;BME280;20918;51.138;17.370;2022-11-23T08:29:28;99285.25;;;0.65;90.62
34696;BME280;20918;51.138;17.370;2022-11-23T08:32:30;99285.27;;;0.60;90.55
34696;BME280;20918;51.138;17.370;2022-11-23T08:35:35;99280.41;;;0.55;90.62
34696;BME280;20918;51.138;17.370;2022-11-23T08:38:36;99287.19;;;0.52;90.77
34696;BME280;20918;51.138;17.370;2022-11-23T08:41:37;99276.99;;;0.49;90.85
34696;BME280;20918;51.138;17.370;2022-11-23T08:44:38;99276.52;;;0.50;90.94
34696;BME280;20918;51.138;17.370;2022-11-23T08:47:39;99271.63;;;0.51;90.92
34696;BME280;20918;51.138;17.370;2022-11-23T08:50:41;99268.43;;;0.53;90.98
34696;BME280;20918;51.138;17.370;2022-11-23T08:53:42;99272.81;;;0.58;91.03
34696;BME280;20918;51.138;17.370;2022-11-23T08:56:43;99265.48;;;0.52;90.80
34696;BME280;20918;51.138;17.370;2022-11-23T08:59:44;99268.89;;;0.58;91.09
34696;BME280;20918;51.138;17.370;2022-11-23T09:02:45;99255.48;;;0.62;91.04
34696;BME280;20918;51.138;17.370;2022-11-23T09:05:46;99257.84;;;0.65;91.19
34696;BME280;20918;51.138;17.370;2022-11-23T09:08:48;99266.98;;;0.65;90.98
34696;BME280;20918;51.138;17.370;2022-11-23T09:11:49;99262.69;;;0.64;90.98
34696;BME280;20918;51.138;17.370;2022-11-23T09:14:51;99267.66;;;0.67;91.07
34696;BME280;20918;51.138;17.370;2022-11-23T09:17:53;99267.21;;;0.68;90.98
34696;BME280;20918;51.138;17.370;2022-11-23T09:20:54;99267.44;;;0.71;91.06
34696;BME280;20918;51.138;17.370;2022-11-23T09:23:57;99266.22;;;0.75;91.07
34696;BME280;20918;51.138;17.370;2022-11-23T09:26:59;99258.14;;;0.78;91.04
34696;BME280;20918;51.138;17.370;2022-11-23T09:30:00;99265.62;;;0.77;90.94
34696;BME280;20918;51.138;17.370;2022-11-23T09:33:02;99258.84;;;0.80;91.08
34696;BME280;20918;51.138;17.370;2022-11-23T09:36:04;99253.01;;;0.87;91.19
34696;BME280;20918;51.138;17.370;2022-11-23T09:39:05;99245.17;;;0.87;90.93
34696;BME280;20918;51.138;17.370;2022-11-23T09:45:46;99225.49;;;0.78;90.89
34696;BME280;20918;51.138;17.370;2022-11-23T09:49:09;99230.97;;;0.75;90.99
34696;BME280;20918;51.138;17.370;2022-11-23T09:52:18;99244.14;;;0.73;90.95
34696;BME280;20918;51.138;17.370;2022-11-23T09:55:40;99246.41;;;0.72;91.00
34696;BME280;20918;51.138;17.370;2022-11-23T09:58:44;99239.17;;;0.70;90.91
34696;BME280;20918;51.138;17.370;2022-11-23T10:01:46;99240.13;;;0.69;91.13
34696;BME280;20918;51.138;17.370;2022-11-23T10:04:51;99239.31;;;0.69;91.12
34696;BME280;20918;51.138;17.370;2022-11-23T10:22:33;99226.41;;;0.88;91.61
34696;BME280;20918;51.138;17.370;2022-11-23T10:25:21;99225.33;;;0.91;91.56
34696;BME280;20918;51.138;17.370;2022-11-23T10:28:17;99218.28;;;0.97;91.73
34696;BME280;20918;51.138;17.370;2022-11-23T10:31:21;99217.77;;;1.03;91.69
34696;BME280;20918;51.138;17.370;2022-11-23T10:34:39;99222.13;;;1.08;91.68
34696;BME280;20918;51.138;17.370;2022-11-23T10:37:50;99215.12;;;1.08;91.49
34696;BME280;20918;51.138;17.370;2022-11-23T10:41:01;99211.16;;;1.14;91.63
34696;BME280;20918;51.138;17.370;2022-11-23T10:47:38;99204.07;;;1.26;91.58
34696;BME280;20918;51.138;17.370;2022-11-23T10:50:41;99203.13;;;1.27;91.36
34696;BME280;20918;51.138;17.370;2022-11-23T10:54:02;99195.37;;;1.31;91.45
34696;BME280;20918;51.138;17.370;2022-11-23T11:00:42;99196.20;;;1.47;91.57
34696;BME280;20918;51.138;17.370;2022-11-23T11:03:43;99210.50;;;1.58;91.59
34696;BME280;20918;51.138;17.370;2022-11-23T11:06:44;99205.34;;;1.62;91.46
34696;BME280;20918;51.138;17.370;2022-11-23T11:09:51;99212.92;;;1.65;91.36
34696;BME280;20918;51.138;17.370;2022-11-23T11:12:57;99205.56;;;1.65;91.16
34696;BME280;20918;51.138;17.370;2022-11-23T11:16:05;99217.81;;;1.64;91.06
34696;BME280;20918;51.138;17.370;2022-11-23T11:19:29;99212.27;;;1.73;91.26
34696;BME280;20918;51.138;17.370;2022-11-23T11:22:34;99214.30;;;1.85;91.47
34696;BME280;20918;51.138;17.370;2022-11-23T11:25:37;99207.05;;;1.98;91.41
34696;BME280;20918;51.138;17.370;2022-11-23T11:28:40;99203.95;;;2.08;91.33
34696;BME280;20918;51.138;17.370;2022-11-23T11:35:09;99192.75;;;2.21;90.63
34696;BME280;20918;51.138;17.370;2022-11-23T11:41:29;99194.15;;;2.26;90.32
34696;BME280;20918;51.138;17.370;2022-11-23T11:44:32;99192.29;;;2.32;90.51
34696;BME280;20918;51.138;17.370;2022-11-23T11:47:40;99190.64;;;2.40;90.45
34696;BME280;20918;51.138;17.370;2022-11-23T11:51:19;99187.41;;;2.42;90.41
34696;BME280;20918;51.138;17.370;2022-11-23T11:54:29;99188.36;;;2.41;90.08
34696;BME280;20918;51.138;17.370;2022-11-23T11:57:45;99179.41;;;2.44;90.10
34696;BME280;20918;51.138;17.370;2022-11-23T12:00:55;99185.67;;;2.47;89.92
34696;BME280;20918;51.138;17.370;2022-11-23T12:04:22;99188.66;;;2.48;89.90
34696;BME280;20918;51.138;17.370;2022-11-23T12:07:55;99195.06;;;2.59;90.12
34696;BME280;20918;51.138;17.370;2022-11-23T12:10:56;99206.29;;;2.65;89.87
34696;BME280;20918;51.138;17.370;2022-11-23T12:14:01;99196.63;;;2.66;89.82
34696;BME280;20918;51.138;17.370;2022-11-23T12:34:20;99189.45;;;2.87;89.25
34696;BME280;20918;51.138;17.370;2022-11-23T12:37:52;99196.34;;;2.88;89.06
34696;BME280;20918;51.138;17.370;2022-11-23T12:48:25;99182.00;;;2.83;88.78
34696;BME280;20918;51.138;17.370;2022-11-23T12:55:22;99179.25;;;2.75;88.69
34696;BME280;20918;51.138;17.370;2022-11-23T12:58:32;99188.55;;;2.73;88.55
34696;BME280;20918;51.138;17.370;2022-11-23T13:01:37;99185.87;;;2.69;88.43
34696;BME280;20918;51.138;17.370;2022-11-23T13:04:51;99186.00;;;2.67;88.59
34696;BME280;20918;51.138;17.370;2022-11-23T13:22:40;99203.25;;;2.80;88.81
34696;BME280;20918;51.138;17.370;2022-11-23T13:36:35;99194.34;;;2.86;88.24
34696;BME280;20918;51.138;17.370;2022-11-23T13:46:25;99194.13;;;2.84;88.33
34696;BME280;20918;51.138;17.370;2022-11-23T13:49:47;99195.80;;;2.85;88.39
34696;BME280;20918;51.138;17.370;2022-11-23T13:52:55;99193.84;;;2.87;88.38
34696;BME280;20918;51.138;17.370;2022-11-23T13:59:29;99198.55;;;2.93;88.52
34696;BME280;20918;51.138;17.370;2022-11-23T14:02:32;99202.41;;;2.89;88.14
34696;BME280;20918;51.138;17.370;2022-11-23T14:05:54;99201.04;;;2.85;88.17
34696;BME280;20918;51.138;17.370;2022-11-23T14:15:44;99207.52;;;2.81;88.23
34696;BME280;20918;51.138;17.370;2022-11-23T14:19:04;99214.75;;;2.83;88.29
34696;BME280;20918;51.138;17.370;2022-11-23T14:36:45;99226.78;;;3.09;88.37
34696;BME280;20918;51.138;17.370;2022-11-23T14:40:05;99219.05;;;3.17;88.28
34696;BME280;20918;51.138;17.370;2022-11-23T14:43:29;99227.86;;;3.26;88.29
34696;BME280;20918;51.138;17.370;2022-11-23T14:46:30;99233.80;;;3.28;88.02
34696;BME280;20918;51.138;17.370;2022-11-23T14:49:31;99232.16;;;3.27;87.94
34696;BME280;20918;51.138;17.370;2022-11-23T14:52:34;99236.70;;;3.25;87.77
34696;BME280;20918;51.138;17.370;2022-11-23T14:55:36;99232.31;;;3.16;87.53
34696;BME280;20918;51.138;17.370;2022-11-23T14:58:38;99232.72;;;3.11;87.53
34696;BME280;20918;51.138;17.370;2022-11-23T15:01:50;99228.53;;;3.04;87.43
34696;BME280;20918;51.138;17.370;2022-11-23T15:04:56;99232.72;;;3.01;87.51
34696;BME280;20918;51.138;17.370;2022-11-23T15:11:26;99231.84;;;2.97;87.52
34696;BME280;20918;51.138;17.370;2022-11-23T15:14:29;99231.31;;;2.93;87.40
34696;BME280;20918;51.138;17.370;2022-11-23T15:17:30;99235.23;;;2.93;87.44
34696;BME280;20918;51.138;17.370;2022-11-23T15:20:33;99236.34;;;2.90;87.31
34696;BME280;20918;51.138;17.370;2022-11-23T15:23:46;99236.80;;;2.90;87.19
34696;BME280;20918;51.138;17.370;2022-11-23T15:26:49;99234.05;;;2.91;87.19
34696;BME280;20918;51.138;17.370;2022-11-23T15:29:53;99244.81;;;2.88;87.00
34696;BME280;20918;51.138;17.370;2022-11-23T15:33:03;99248.61;;;2.80;86.84
34696;BME280;20918;51.138;17.370;2022-11-23T15:36:09;99239.45;;;2.71;86.77
34696;BME280;20918;51.138;17.370;2022-11-23T15:39:19;99248.11;;;2.61;86.80
34696;BME280;20918;51.138;17.370;2022-11-23T15:42:25;99239.71;;;2.58;86.88
34696;BME280;20918;51.138;17.370;2022-11-23T15:48:47;99227.36;;;2.35;86.50
34696;BME280;20918;51.138;17.370;2022-11-23T15:51:50;99228.18;;;2.26;86.46
34696;BME280;20918;51.138;17.370;2022-11-23T15:54:54;99234.78;;;2.20;86.46
34696;BME280;20918;51.138;17.370;2022-11-23T15:57:56;99243.91;;;2.10;86.35
34696;BME280;20918;51.138;17.370;2022-11-23T16:01:10;99240.45;;;2.00;86.31
34696;BME280;20918;51.138;17.370;2022-11-23T16:04:27;99243.67;;;1.98;86.67
34696;BME280;20918;51.138;17.370;2022-11-23T16:07:31;99239.37;;;1.97;86.52
34696;BME280;20918;51.138;17.370;2022-11-23T16:10:33;99240.63;;;1.93;86.20
34696;BME280;20918;51.138;17.370;2022-11-23T16:13:36;99235.11;;;1.86;86.01
34696;BME280;20918;51.138;17.370;2022-11-23T16:16:39;99228.56;;;1.86;86.06
34696;BME280;20918;51.138;17.370;2022-11-23T16:19:46;99236.46;;;1.81;86.08
34696;BME280;20918;51.138;17.370;2022-11-23T16:22:49;99224.86;;;1.73;86.08
34696;BME280;20918;51.138;17.370;2022-11-23T16:25:57;99225.39;;;1.67;86.09
34696;BME280;20918;51.138;17.370;2022-11-23T16:29:01;99228.09;;;1.56;85.97
34696;BME280;20918;51.138;17.370;2022-11-23T16:32:03;99229.56;;;1.33;85.31
34696;BME280;20918;51.138;17.370;2022-11-23T16:35:18;99225.42;;;1.16;85.64
34696;BME280;20918;51.138;17.370;2022-11-23T16:38:21;99231.45;;;0.95;85.19
34696;BME280;20918;51.138;17.370;2022-11-23T16:41:30;99238.78;;;0.80;85.43
34696;BME280;20918;51.138;17.370;2022-11-23T16:44:44;99239.56;;;0.65;85.66
34696;BME280;20918;51.138;17.370;2022-11-23T16:47:57;99241.84;;;0.53;85.88
34696;BME280;20918;51.138;17.370;2022-11-23T16:51:00;99235.57;;;0.50;86.03
34696;BME280;20918;51.138;17.370;2022-11-23T16:54:01;99241.52;;;0.47;86.12
34696;BME280;20918;51.138;17.370;2022-11-23T16:57:03;99234.19;;;0.40;85.85
34696;BME280;20918;51.138;17.370;2022-11-23T17:00:10;99236.82;;;0.35;85.74
34696;BME280;20918;51.138;17.370;2022-11-23T17:03:19;99242.30;;;0.26;85.48
34696;BME280;20918;51.138;17.370;2022-11-23T17:06:21;99241.25;;;0.17;85.74
34696;BME280;20918;51.138;17.370;2022-11-23T17:09:22;99240.55;;;0.10;85.93
34696;BME280;20918;51.138;17.370;2022-11-23T17:12:24;99242.34;;;0.04;86.05
34696;BME280;20918;51.138;17.370;2022-11-23T17:15:26;99240.33;;;-0.04;86.02
34696;BME280;20918;51.138;17.370;2022-11-23T17:18:29;99242.60;;;-0.11;85.87
34696;BME280;20918;51.138;17.370;2022-11-23T17:21:30;99239.77;;;-0.19;85.71
34696;BME280;20918;51.138;17.370;2022-11-23T17:24:36;99238.46;;;-0.25;85.69
34696;BME280;20918;51.138;17.370;2022-11-23T17:27:44;99239.05;;;-0.32;85.93
34696;BME280;20918;51.138;17.370;2022-11-23T17:30:46;99234.80;;;-0.39;86.13
34696;BME280;20918;51.138;17.370;2022-11-23T17:33:48;99239.28;;;-0.47;86.12
34696;BME280;20918;51.138;17.370;2022-11-23T17:36:50;99231.57;;;-0.54;86.28
34696;BME280;20918;51.138;17.370;2022-11-23T17:39:52;99245.80;;;-0.58;86.26
34696;BME280;20918;51.138;17.370;2022-11-23T17:42:53;99247.33;;;-0.66;86.20
34696;BME280;20918;51.138;17.370;2022-11-23T17:45:54;99250.17;;;-0.70;86.36
34696;BME280;20918;51.138;17.370;2022-11-23T17:48:58;99254.98;;;-0.76;86.29
34696;BME280;20918;51.138;17.370;2022-11-23T17:52:02;99253.82;;;-0.78;86.30
34696;BME280;20918;51.138;17.370;2022-11-23T17:55:04;99256.42;;;-0.83;86.33
34696;BME280;20918;51.138;17.370;2022-11-23T17:58:08;99259.34;;;-0.94;86.12
34696;BME280;20918;51.138;17.370;2022-11-23T18:01:12;99259.57;;;-0.97;86.36
34696;BME280;20918;51.138;17.370;2022-11-23T18:04:14;99257.20;;;-1.00;86.34
34696;BME280;20918;51.138;17.370;2022-11-23T18:07:15;99268.92;;;-1.00;86.51
34696;BME280;20918;51.138;17.370;2022-11-23T18:10:18;99264.05;;;-0.99;86.63
34696;BME280;20918;51.138;17.370;2022-11-23T18:13:19;99265.97;;;-1.01;86.50
34696;BME280;20918;51.138;17.370;2022-11-23T18:16:22;99262.30;;;-1.04;86.43
34696;BME280;20918;51.138;17.370;2022-11-23T18:19:23;99268.08;;;-1.06;86.36
34696;BME280;20918;51.138;17.370;2022-11-23T18:22:25;99269.03;;;-1.07;86.27
34696;BME280;20918;51.138;17.370;2022-11-23T18:25:26;99276.46;;;-1.08;86.21
34696;BME280;20918;51.138;17.370;2022-11-23T18:28:28;99272.56;;;-1.08;86.15